Rolla, ND

4:25 PM CDT on July 24, 2016 (GMT -0500)
Rolla

Weather History for K06D - December, 2012

Change the Weather History Date:

Wednesday, December 5, 2012

  Actual Average (KRUG) Record (KRUG)
Temperature  
Mean Temperature 20 °F -  
Max Temperature 32 °F 25 °F 51 °F (1979)
Min Temperature 8 °F 5 °F -21 °F (1950)
Degree Days  
Heating Degree Days 45    
Moisture  
Dew Point 20 °F    
Average Humidity 95    
Maximum Humidity 100    
Minimum Humidity 86    
Precipitation  
Precipitation 0.00 in - - ()
Sea Level Pressure  
Sea Level Pressure 29.78 in    
Wind  
Wind Speed 16 mph (SSW)    
Max Wind Speed 24 mph    
Max Gust Speed 33 mph    
Visibility 10 miles    
Events      
Averages and records for this station are not official NWS values.
T = Trace of Precipitation, MM = Missing Value Source: NWS Daily Summary

Daily Weather History Graph

Daily Weather History Graph

Search for Another Location

Airport or City:

Trip Planner

Search our weather history database for the weather conditions in past years. The results will help you decide how hot, cold, wet, or windy it might be!

Date:

Astronomy

Dec. 05, 2012 Rise Set
Actual Time 8:16 AM CST 4:42 PM CST
Civil Twilight 7:39 AM CST 5:19 PM CST
Nautical Twilight 6:59 AM CST 5:59 PM CST
Astronomical Twilight 6:21 AM CST 6:37 PM CST
Moon No Moon Rise 12:16 PM CST (12/5)
Length of Visible Light 9h 39m
Length of Day
8h 26m
Waning Gibbous, 59% of the Moon is Illuminated
Dec 5
Waning Gibbous
Dec 6
Last Quarter
Dec 13
New
Dec 19
First Quarter
Dec 28
Full

Hourly Weather History & Observations

Time (CST) Temp. Windchill Dew Point Humidity Pressure Visibility Wind Dir Wind Speed Gust Speed Precip Events Conditions
12:15 AM 8.6 °F -7.0 °F 8.6 °F 100% 30.18 in 10.0 mi South 12.7 mph - N/A   Overcast
12:35 AM 10.4 °F -4.8 °F 8.6 °F 92% 30.18 in 10.0 mi South 12.7 mph - N/A   Overcast
12:55 AM 10.4 °F -6.0 °F 10.4 °F 100% 30.17 in 10.0 mi South 15.0 mph - N/A   Overcast
1:15 AM 12.2 °F -2.5 °F 10.4 °F 92% 30.15 in 10.0 mi SSE 12.7 mph 17.3 mph N/A   Overcast
1:55 AM 14.0 °F -1.4 °F 14.0 °F 100% 30.13 in 10.0 mi South 15.0 mph 19.6 mph N/A   Overcast
2:15 AM 14.0 °F -2.0 °F 14.0 °F 100% 30.12 in 10.0 mi South 16.1 mph 20.7 mph N/A   Overcast
2:35 AM 14.0 °F -1.4 °F 14.0 °F 100% 30.12 in 10.0 mi South 15.0 mph 19.6 mph N/A   Overcast
2:55 AM 14.0 °F -1.4 °F 14.0 °F 100% 30.11 in 10.0 mi South 15.0 mph - N/A   Mostly Cloudy
3:15 AM 14.0 °F -0.8 °F 14.0 °F 100% 30.09 in 10.0 mi South 13.8 mph - N/A   Partly Cloudy
3:35 AM 14.0 °F -3.0 °F 14.0 °F 100% 30.06 in 10.0 mi South 18.4 mph - N/A   Clear
3:55 AM 14.0 °F -0.2 °F 14.0 °F 100% 30.05 in 10.0 mi South 12.7 mph - N/A   Clear
4:15 AM 14.0 °F -0.2 °F 14.0 °F 100% 30.04 in 10.0 mi South 12.7 mph 18.4 mph N/A   Clear
4:35 AM 14.0 °F -0.2 °F 14.0 °F 100% 30.03 in 10.0 mi South 12.7 mph - N/A   Clear
4:55 AM 14.0 °F -1.4 °F 14.0 °F 100% 30.03 in 10.0 mi South 15.0 mph - N/A   Clear
5:15 AM 14.0 °F -1.4 °F 12.2 °F 93% 30.02 in 10.0 mi South 15.0 mph 20.7 mph N/A   Clear
5:35 AM 14.0 °F -0.8 °F 12.2 °F 93% 30.01 in 10.0 mi South 13.8 mph - N/A   Clear
5:55 AM 14.0 °F -1.4 °F 12.2 °F 93% 30.00 in 10.0 mi South 15.0 mph - N/A   Clear
6:15 AM 14.0 °F -1.4 °F 12.2 °F 93% 29.98 in 10.0 mi South 15.0 mph - N/A   Clear
6:35 AM 14.0 °F -2.5 °F 12.2 °F 93% 29.97 in 10.0 mi South 17.3 mph 20.7 mph N/A   Clear
6:55 AM 14.0 °F -1.4 °F 12.2 °F 93% 29.96 in 10.0 mi South 15.0 mph 20.7 mph N/A   Clear
8:35 AM 15.8 °F -1.5 °F 14.0 °F 93% 29.89 in 10.0 mi South 20.7 mph 27.6 mph N/A   Clear
8:55 AM 15.8 °F -1.1 °F 14.0 °F 93% 29.88 in 10.0 mi South 19.6 mph 27.6 mph N/A   Clear
9:15 AM 15.8 °F -1.9 °F 14.0 °F 93% 29.86 in 10.0 mi South 21.9 mph 27.6 mph N/A   Clear
9:35 AM 17.6 °F 1.7 °F 15.8 °F 93% 29.85 in 10.0 mi South 18.4 mph - N/A   Partly Cloudy
9:55 AM 17.6 °F 1.3 °F 15.8 °F 93% 29.84 in 10.0 mi South 19.6 mph 26.5 mph N/A   Mostly Cloudy
10:15 AM 17.6 °F 0.5 °F 17.6 °F 100% 29.83 in 10.0 mi South 21.9 mph 25.3 mph N/A   Mostly Cloudy
10:35 AM 19.4 °F 2.8 °F 17.6 °F 93% 29.82 in 10.0 mi South 21.9 mph - N/A   Overcast
10:55 AM 19.4 °F 3.2 °F 17.6 °F 93% 29.80 in 10.0 mi South 20.7 mph 29.9 mph N/A   Overcast
11:15 AM 19.4 °F 3.2 °F 19.4 °F 100% 29.79 in 10.0 mi South 20.7 mph 27.6 mph N/A   Scattered Clouds
11:35 AM 21.2 °F 6.0 °F 19.4 °F 93% 29.77 in 10.0 mi South 19.6 mph 26.5 mph N/A   Clear
11:55 AM 21.2 °F 6.4 °F 19.4 °F 93% 29.77 in 10.0 mi SSW 18.4 mph 25.3 mph N/A   Clear
12:15 PM 21.2 °F 6.4 °F 19.4 °F 93% 29.75 in 10.0 mi South 18.4 mph 24.2 mph N/A   Clear
12:35 PM 23.0 °F 8.7 °F 21.2 °F 93% 29.73 in 10.0 mi South 18.4 mph 24.2 mph N/A   Clear
12:55 PM 23.0 °F 9.2 °F 21.2 °F 93% 29.71 in 10.0 mi South 17.3 mph 23.0 mph N/A   Clear
1:15 PM 23.0 °F 8.7 °F 21.2 °F 93% 29.69 in 10.0 mi SSW 18.4 mph 23.0 mph N/A   Clear
1:35 PM 24.8 °F 11.9 °F 23.0 °F 93% 29.68 in 10.0 mi South 16.1 mph - N/A   Clear
1:55 PM 24.8 °F 11.1 °F 23.0 °F 93% 29.66 in 10.0 mi South 18.4 mph - N/A   Clear
2:15 PM 24.8 °F 11.5 °F 23.0 °F 93% 29.64 in 10.0 mi South 17.3 mph - N/A   Clear
2:35 PM 24.8 °F 10.3 °F 24.8 °F 100% 29.63 in 10.0 mi South 20.7 mph 25.3 mph N/A   Clear
2:55 PM 26.6 °F 13.8 °F 24.8 °F 93% 29.62 in 10.0 mi South 17.3 mph 26.5 mph N/A   Clear
3:15 PM 26.6 °F 13.1 °F 24.8 °F 93% 29.60 in 10.0 mi South 19.6 mph 26.5 mph N/A   Clear
3:35 PM 26.6 °F 14.7 °F 24.8 °F 93% 29.60 in 10.0 mi SSW 15.0 mph 20.7 mph N/A   Clear
3:55 PM 26.6 °F 13.4 °F 24.8 °F 93% 29.60 in 10.0 mi SSW 18.4 mph - N/A   Partly Cloudy
4:15 PM 26.6 °F 13.4 °F 24.8 °F 93% 29.59 in 10.0 mi SSW 18.4 mph - N/A   Mostly Cloudy
4:35 PM 26.6 °F 13.1 °F 24.8 °F 93% 29.59 in 10.0 mi SSW 19.6 mph - N/A   Overcast
4:55 PM 26.6 °F 14.3 °F 24.8 °F 93% 29.58 in 10.0 mi SSW 16.1 mph - N/A   Mostly Cloudy
5:15 PM 26.6 °F 13.1 °F 26.6 °F 100% 29.58 in 10.0 mi SSW 19.6 mph 24.2 mph N/A   Scattered Clouds
5:35 PM 26.6 °F 13.1 °F 26.6 °F 100% 29.58 in 10.0 mi SSW 19.6 mph - N/A   Mostly Cloudy
5:55 PM 28.4 °F 15.4 °F 26.6 °F 93% 29.57 in 10.0 mi SSW 19.6 mph 24.2 mph N/A   Mostly Cloudy
6:15 PM 26.6 °F 13.1 °F 26.6 °F 100% 29.57 in 10.0 mi SSW 19.6 mph - N/A   Mostly Cloudy
6:35 PM 28.4 °F 16.2 °F 26.6 °F 93% 29.56 in 10.0 mi SSW 17.3 mph - N/A   Mostly Cloudy
6:55 PM 28.4 °F 15.8 °F 26.6 °F 93% 29.56 in 10.0 mi SSW 18.4 mph - N/A   Mostly Cloudy
7:15 PM 28.4 °F 16.6 °F 26.6 °F 93% 29.56 in 10.0 mi SSW 16.1 mph - N/A   Scattered Clouds
7:35 PM 28.4 °F 16.2 °F 26.6 °F 93% 29.56 in 10.0 mi SW 17.3 mph - N/A   Mostly Cloudy
7:55 PM 28.4 °F 16.2 °F 28.4 °F 100% 29.56 in 10.0 mi SW 17.3 mph 25.3 mph N/A   Mostly Cloudy
8:15 PM 28.4 °F 16.6 °F 26.6 °F 93% 29.56 in 10.0 mi SW 16.1 mph - N/A   Scattered Clouds
8:35 PM 28.4 °F 16.6 °F 26.6 °F 93% 29.55 in 10.0 mi SW 16.1 mph - N/A   Clear
8:55 PM 28.4 °F 16.6 °F 26.6 °F 93% 29.54 in 10.0 mi SW 16.1 mph - N/A   Clear
9:15 PM 28.4 °F 16.6 °F 26.6 °F 93% 29.53 in 10.0 mi SW 16.1 mph - N/A   Clear
9:35 PM 26.6 °F 13.4 °F 26.6 °F 100% 29.53 in 10.0 mi SW 18.4 mph - N/A   Clear
9:55 PM 28.4 °F 16.2 °F 26.6 °F 93% 29.54 in 10.0 mi SW 17.3 mph - N/A   Clear
10:15 PM 30.2 °F 18.5 °F 26.6 °F 86% 29.53 in 10.0 mi WSW 17.3 mph 23.0 mph N/A   Clear
10:35 PM 32.0 °F 19.2 °F 28.4 °F 87% 29.52 in 10.0 mi West 23.0 mph 29.9 mph N/A   Clear
10:55 PM 32.0 °F 18.9 °F 32.0 °F 100% 29.52 in 10.0 mi West 24.2 mph 33.4 mph N/A   Partly Cloudy